Disclaimer

Please do not use the information listed here in-flight or in-navigation, as they are not provided to us by the airports but are provided by volunteers, so they might be outdated.

Search


Regions


Airport information page

Radio informations:
Tower (TWR) - 122.5 MHz
OPS - 130.375 MHz
Director (DIR) - 130.05 MHz
Automatic Terminal Information Service (ATIS) - 128.4 MHz
Approach (APP) - 134.35 MHz

Airport informations:
Latitude: 51° 16' 33.00" N
Longitude: 000° 46' 34.80" W
Elevation: 238 feet - 73 meters
Operating hours: Remarks
Operating agency: Military-civil joint use airport
Timezone: UTC 0(+1DT) - Last Sunday in March to last Sunday in October
Fuel: N/A

Runway information:
06/24 - 8005 x 148 feet< - >2440 x 45 meters

Recent METARs:
EGLF 211620Z 11010KT 9999 BKN040 05/00 Q1015
EGLF 211650Z 11008KT 9999 BKN038 05/00 Q1015
EGLF 211720Z 10007KT 9999 BKN037 04/00 Q1016

Airport on the map: